sensor_id;sensor_type;location;lat;lon;timestamp;P1;durP1;ratioP1;P2;durP2;ratioP2
5414;SDS011;2730;51.512;7.504;2024-03-23T00:55:56;8.63;;;2.47;;
5414;SDS011;2730;51.512;7.504;2024-03-23T00:58:21;13.73;;;2.73;;
5414;SDS011;2730;51.512;7.504;2024-03-23T01:00:48;15.00;;;3.03;;
5414;SDS011;2730;51.512;7.504;2024-03-23T01:03:14;5.00;;;2.73;;
5414;SDS011;2730;51.512;7.504;2024-03-23T01:05:40;10.60;;;3.08;;
5414;SDS011;2730;51.512;7.504;2024-03-23T01:08:06;16.43;;;2.93;;
5414;SDS011;2730;51.512;7.504;2024-03-23T01:10:34;5.80;;;2.22;;
5414;SDS011;2730;51.512;7.504;2024-03-23T01:13:00;10.45;;;3.72;;
5414;SDS011;2730;51.512;7.504;2024-03-23T01:15:27;4.70;;;2.70;;
5414;SDS011;2730;51.512;7.504;2024-03-23T01:17:53;5.00;;;1.90;;
5414;SDS011;2730;51.512;7.504;2024-03-23T01:20:19;5.22;;;2.85;;
5414;SDS011;2730;51.512;7.504;2024-03-23T01:22:45;13.17;;;3.10;;
5414;SDS011;2730;51.512;7.504;2024-03-23T01:25:12;8.20;;;3.42;;
5414;SDS011;2730;51.512;7.504;2024-03-23T01:27:39;13.40;;;2.97;;
5414;SDS011;2730;51.512;7.504;2024-03-23T01:30:06;9.85;;;2.95;;
5414;SDS011;2730;51.512;7.504;2024-03-23T01:32:32;4.95;;;2.13;;
5414;SDS011;2730;51.512;7.504;2024-03-23T01:34:59;8.73;;;2.08;;
5414;SDS011;2730;51.512;7.504;2024-03-23T01:37:25;11.33;;;2.77;;
5414;SDS011;2730;51.512;7.504;2024-03-23T01:39:51;5.57;;;1.88;;
5414;SDS011;2730;51.512;7.504;2024-03-23T01:42:17;6.27;;;2.87;;
5414;SDS011;2730;51.512;7.504;2024-03-23T01:44:45;7.32;;;2.55;;
5414;SDS011;2730;51.512;7.504;2024-03-23T01:47:11;6.60;;;2.50;;
5414;SDS011;2730;51.512;7.504;2024-03-23T01:49:38;11.48;;;2.05;;
5414;SDS011;2730;51.512;7.504;2024-03-23T01:52:04;11.37;;;2.30;;
5414;SDS011;2730;51.512;7.504;2024-03-23T01:54:31;2.72;;;1.50;;
5414;SDS011;2730;51.512;7.504;2024-03-23T01:56:56;9.73;;;2.43;;
5414;SDS011;2730;51.512;7.504;2024-03-23T01:59:23;2.88;;;1.85;;
5414;SDS011;2730;51.512;7.504;2024-03-23T02:01:51;4.70;;;2.30;;
5414;SDS011;2730;51.512;7.504;2024-03-23T02:04:17;3.58;;;1.25;;
5414;SDS011;2730;51.512;7.504;2024-03-23T02:06:43;4.87;;;1.40;;
5414;SDS011;2730;51.512;7.504;2024-03-23T02:09:10;4.28;;;1.92;;
5414;SDS011;2730;51.512;7.504;2024-03-23T02:11:36;4.40;;;1.20;;
5414;SDS011;2730;51.512;7.504;2024-03-23T02:14:02;5.13;;;1.38;;
5414;SDS011;2730;51.512;7.504;2024-03-23T02:16:28;2.53;;;1.47;;
5414;SDS011;2730;51.512;7.504;2024-03-23T02:18:56;3.58;;;1.30;;
5414;SDS011;2730;51.512;7.504;2024-03-23T02:21:22;9.48;;;1.70;;
5414;SDS011;2730;51.512;7.504;2024-03-23T02:23:50;4.72;;;1.40;;
5414;SDS011;2730;51.512;7.504;2024-03-23T02:26:16;5.38;;;1.90;;
5414;SDS011;2730;51.512;7.504;2024-03-23T02:28:43;2.97;;;1.50;;
5414;SDS011;2730;51.512;7.504;2024-03-23T02:31:08;8.77;;;1.53;;
5414;SDS011;2730;51.512;7.504;2024-03-23T02:33:35;2.92;;;1.25;;
5414;SDS011;2730;51.512;7.504;2024-03-23T02:36:03;4.32;;;1.63;;
5414;SDS011;2730;51.512;7.504;2024-03-23T02:38:30;2.25;;;1.02;;
5414;SDS011;2730;51.512;7.504;2024-03-23T02:41:02;4.10;;;1.60;;
5414;SDS011;2730;51.512;7.504;2024-03-23T02:43:29;5.85;;;1.23;;
5414;SDS011;2730;51.512;7.504;2024-03-23T02:45:54;1.63;;;1.50;;
5414;SDS011;2730;51.512;7.504;2024-03-23T02:48:22;6.28;;;1.65;;
5414;SDS011;2730;51.512;7.504;2024-03-23T02:50:48;5.70;;;1.73;;
5414;SDS011;2730;51.512;7.504;2024-03-23T02:53:15;4.80;;;1.90;;
5414;SDS011;2730;51.512;7.504;2024-03-23T02:55:41;2.03;;;1.50;;
5414;SDS011;2730;51.512;7.504;2024-03-23T02:58:09;7.63;;;2.67;;
5414;SDS011;2730;51.512;7.504;2024-03-23T03:00:35;7.03;;;1.63;;
5414;SDS011;2730;51.512;7.504;2024-03-23T03:03:01;9.50;;;1.73;;
5414;SDS011;2730;51.512;7.504;2024-03-23T03:05:28;2.60;;;1.50;;
5414;SDS011;2730;51.512;7.504;2024-03-23T03:07:55;1.63;;;1.52;;
5414;SDS011;2730;51.512;7.504;2024-03-23T03:10:20;2.53;;;1.27;;
5414;SDS011;2730;51.512;7.504;2024-03-23T03:12:47;3.35;;;1.33;;
5414;SDS011;2730;51.512;7.504;2024-03-23T03:15:14;4.00;;;1.50;;
5414;SDS011;2730;51.512;7.504;2024-03-23T03:17:41;4.03;;;1.10;;
5414;SDS011;2730;51.512;7.504;2024-03-23T03:20:07;9.10;;;1.60;;
5414;SDS011;2730;51.512;7.504;2024-03-23T03:22:38;2.53;;;1.45;;
5414;SDS011;2730;51.512;7.504;2024-03-23T03:25:04;4.10;;;1.30;;
5414;SDS011;2730;51.512;7.504;2024-03-23T03:27:32;2.72;;;1.40;;
5414;SDS011;2730;51.512;7.504;2024-03-23T03:29:58;3.13;;;1.80;;
5414;SDS011;2730;51.512;7.504;2024-03-23T03:32:27;2.95;;;1.95;;
5414;SDS011;2730;51.512;7.504;2024-03-23T03:34:54;2.28;;;1.33;;
5414;SDS011;2730;51.512;7.504;2024-03-23T03:37:20;3.17;;;1.23;;
5414;SDS011;2730;51.512;7.504;2024-03-23T03:39:46;9.20;;;1.57;;
5414;SDS011;2730;51.512;7.504;2024-03-23T03:42:13;2.33;;;0.95;;
5414;SDS011;2730;51.512;7.504;2024-03-23T03:44:39;2.88;;;1.20;;
5414;SDS011;2730;51.512;7.504;2024-03-23T03:47:06;3.25;;;1.35;;
5414;SDS011;2730;51.512;7.504;2024-03-23T03:49:33;5.33;;;1.20;;
5414;SDS011;2730;51.512;7.504;2024-03-23T03:52:00;4.93;;;1.20;;
5414;SDS011;2730;51.512;7.504;2024-03-23T03:54:27;3.20;;;1.95;;
5414;SDS011;2730;51.512;7.504;2024-03-23T03:56:53;9.90;;;1.40;;
5414;SDS011;2730;51.512;7.504;2024-03-23T03:59:19;7.03;;;1.10;;
5414;SDS011;2730;51.512;7.504;2024-03-23T04:01:46;1.90;;;1.25;;
5414;SDS011;2730;51.512;7.504;2024-03-23T04:04:12;6.23;;;1.47;;
5414;SDS011;2730;51.512;7.504;2024-03-23T04:06:42;4.53;;;1.17;;
5414;SDS011;2730;51.512;7.504;2024-03-23T04:09:08;2.28;;;1.55;;
5414;SDS011;2730;51.512;7.504;2024-03-23T04:11:36;5.00;;;1.20;;
5414;SDS011;2730;51.512;7.504;2024-03-23T04:14:01;2.93;;;1.60;;
5414;SDS011;2730;51.512;7.504;2024-03-23T04:16:28;5.18;;;1.77;;
5414;SDS011;2730;51.512;7.504;2024-03-23T04:18:55;2.97;;;1.52;;
5414;SDS011;2730;51.512;7.504;2024-03-23T04:21:22;11.13;;;1.58;;
5414;SDS011;2730;51.512;7.504;2024-03-23T04:23:49;4.27;;;1.83;;
5414;SDS011;2730;51.512;7.504;2024-03-23T04:26:15;6.45;;;1.90;;
5414;SDS011;2730;51.512;7.504;2024-03-23T04:28:41;8.33;;;1.60;;
5414;SDS011;2730;51.512;7.504;2024-03-23T04:31:08;3.90;;;1.75;;
5414;SDS011;2730;51.512;7.504;2024-03-23T04:33:34;4.87;;;1.30;;
5414;SDS011;2730;51.512;7.504;2024-03-23T04:36:01;7.30;;;1.25;;
5414;SDS011;2730;51.512;7.504;2024-03-23T04:38:27;7.50;;;1.55;;
5414;SDS011;2730;51.512;7.504;2024-03-23T04:40:56;9.57;;;1.70;;
5414;SDS011;2730;51.512;7.504;2024-03-23T04:43:23;6.18;;;1.90;;
5414;SDS011;2730;51.512;7.504;2024-03-23T04:45:50;3.15;;;1.27;;
5414;SDS011;2730;51.512;7.504;2024-03-23T04:48:19;5.82;;;1.65;;
5414;SDS011;2730;51.512;7.504;2024-03-23T04:50:46;6.45;;;1.70;;
5414;SDS011;2730;51.512;7.504;2024-03-23T04:53:13;3.55;;;1.10;;
5414;SDS011;2730;51.512;7.504;2024-03-23T04:55:40;4.13;;;1.48;;
5414;SDS011;2730;51.512;7.504;2024-03-23T04:58:08;2.55;;;1.35;;
5414;SDS011;2730;51.512;7.504;2024-03-23T05:00:34;3.95;;;1.60;;
5414;SDS011;2730;51.512;7.504;2024-03-23T05:03:01;3.65;;;1.50;;
5414;SDS011;2730;51.512;7.504;2024-03-23T05:05:27;7.30;;;1.30;;
5414;SDS011;2730;51.512;7.504;2024-03-23T05:07:53;3.17;;;1.67;;
5414;SDS011;2730;51.512;7.504;2024-03-23T05:10:19;5.07;;;1.60;;
5414;SDS011;2730;51.512;7.504;2024-03-23T05:12:46;2.90;;;1.35;;
5414;SDS011;2730;51.512;7.504;2024-03-23T05:15:14;5.30;;;2.90;;
5414;SDS011;2730;51.512;7.504;2024-03-23T05:17:40;4.95;;;1.65;;
5414;SDS011;2730;51.512;7.504;2024-03-23T05:20:07;13.77;;;3.50;;
5414;SDS011;2730;51.512;7.504;2024-03-23T05:22:34;3.63;;;1.30;;
5414;SDS011;2730;51.512;7.504;2024-03-23T05:25:01;2.75;;;1.30;;
5414;SDS011;2730;51.512;7.504;2024-03-23T05:27:29;15.55;;;2.05;;
5414;SDS011;2730;51.512;7.504;2024-03-23T05:29:57;7.32;;;1.85;;
5414;SDS011;2730;51.512;7.504;2024-03-23T05:32:24;13.30;;;2.20;;
5414;SDS011;2730;51.512;7.504;2024-03-23T05:34:51;2.63;;;2.15;;
5414;SDS011;2730;51.512;7.504;2024-03-23T05:37:20;7.78;;;1.88;;
5414;SDS011;2730;51.512;7.504;2024-03-23T05:39:47;8.50;;;2.17;;
5414;SDS011;2730;51.512;7.504;2024-03-23T05:42:14;8.02;;;2.10;;
5414;SDS011;2730;51.512;7.504;2024-03-23T05:44:42;6.75;;;1.92;;
5414;SDS011;2730;51.512;7.504;2024-03-23T05:47:09;10.68;;;3.05;;
5414;SDS011;2730;51.512;7.504;2024-03-23T05:49:37;7.90;;;1.95;;
5414;SDS011;2730;51.512;7.504;2024-03-23T05:52:03;3.00;;;1.65;;
5414;SDS011;2730;51.512;7.504;2024-03-23T05:54:30;10.55;;;2.13;;
5414;SDS011;2730;51.512;7.504;2024-03-23T05:56:56;7.03;;;1.80;;
5414;SDS011;2730;51.512;7.504;2024-03-23T05:59:22;3.97;;;2.15;;
5414;SDS011;2730;51.512;7.504;2024-03-23T06:01:48;11.07;;;2.60;;
5414;SDS011;2730;51.512;7.504;2024-03-23T06:04:15;10.75;;;2.70;;
5414;SDS011;2730;51.512;7.504;2024-03-23T06:06:42;9.57;;;2.60;;
5414;SDS011;2730;51.512;7.504;2024-03-23T06:09:09;9.75;;;3.58;;
5414;SDS011;2730;51.512;7.504;2024-03-23T06:11:34;10.10;;;3.30;;
5414;SDS011;2730;51.512;7.504;2024-03-23T06:14:01;19.10;;;4.50;;
5414;SDS011;2730;51.512;7.504;2024-03-23T06:16:27;7.33;;;3.97;;
5414;SDS011;2730;51.512;7.504;2024-03-23T06:18:55;16.02;;;6.65;;
5414;SDS011;2730;51.512;7.504;2024-03-23T06:21:21;12.82;;;5.18;;
5414;SDS011;2730;51.512;7.504;2024-03-23T06:23:50;13.02;;;5.05;;
5414;SDS011;2730;51.512;7.504;2024-03-23T06:26:17;11.80;;;5.88;;
5414;SDS011;2730;51.512;7.504;2024-03-23T06:28:44;17.23;;;5.60;;
5414;SDS011;2730;51.512;7.504;2024-03-23T06:31:10;13.23;;;6.07;;
5414;SDS011;2730;51.512;7.504;2024-03-23T06:33:37;12.35;;;5.90;;
5414;SDS011;2730;51.512;7.504;2024-03-23T06:36:04;17.55;;;7.47;;
5414;SDS011;2730;51.512;7.504;2024-03-23T06:38:31;14.70;;;7.07;;
5414;SDS011;2730;51.512;7.504;2024-03-23T06:40:58;14.50;;;7.30;;
5414;SDS011;2730;51.512;7.504;2024-03-23T06:43:25;15.13;;;7.70;;
5414;SDS011;2730;51.512;7.504;2024-03-23T06:45:54;18.50;;;7.57;;
5414;SDS011;2730;51.512;7.504;2024-03-23T06:48:21;15.32;;;8.00;;
5414;SDS011;2730;51.512;7.504;2024-03-23T06:50:47;18.40;;;7.23;;
5414;SDS011;2730;51.512;7.504;2024-03-23T06:53:14;13.70;;;6.95;;
5414;SDS011;2730;51.512;7.504;2024-03-23T06:55:40;18.73;;;8.25;;
5414;SDS011;2730;51.512;7.504;2024-03-23T06:58:09;17.95;;;8.13;;
5414;SDS011;2730;51.512;7.504;2024-03-23T07:00:38;16.10;;;8.88;;
5414;SDS011;2730;51.512;7.504;2024-03-23T07:03:05;24.08;;;9.63;;
5414;SDS011;2730;51.512;7.504;2024-03-23T07:05:32;19.13;;;8.73;;
5414;SDS011;2730;51.512;7.504;2024-03-23T07:07:58;23.00;;;8.40;;
5414;SDS011;2730;51.512;7.504;2024-03-23T07:10:24;16.47;;;7.83;;
5414;SDS011;2730;51.512;7.504;2024-03-23T07:12:51;21.42;;;8.60;;
5414;SDS011;2730;51.512;7.504;2024-03-23T07:15:18;13.90;;;7.10;;
5414;SDS011;2730;51.512;7.504;2024-03-23T07:17:46;23.85;;;8.65;;
5414;SDS011;2730;51.512;7.504;2024-03-23T07:20:12;27.95;;;9.65;;
5414;SDS011;2730;51.512;7.504;2024-03-23T07:22:39;22.42;;;7.68;;
5414;SDS011;2730;51.512;7.504;2024-03-23T07:25:04;28.43;;;10.20;;
5414;SDS011;2730;51.512;7.504;2024-03-23T07:27:32;22.15;;;8.20;;
5414;SDS011;2730;51.512;7.504;2024-03-23T07:29:58;22.58;;;9.15;;
5414;SDS011;2730;51.512;7.504;2024-03-23T07:32:27;24.10;;;9.38;;
5414;SDS011;2730;51.512;7.504;2024-03-23T07:34:53;20.50;;;9.05;;
5414;SDS011;2730;51.512;7.504;2024-03-23T07:37:19;22.98;;;9.32;;
5414;SDS011;2730;51.512;7.504;2024-03-23T07:39:45;18.77;;;9.90;;
5414;SDS011;2730;51.512;7.504;2024-03-23T07:42:12;21.00;;;8.30;;
5414;SDS011;2730;51.512;7.504;2024-03-23T07:44:38;16.10;;;8.20;;
5414;SDS011;2730;51.512;7.504;2024-03-23T07:47:05;20.50;;;8.95;;
5414;SDS011;2730;51.512;7.504;2024-03-23T07:49:32;21.75;;;9.40;;
5414;SDS011;2730;51.512;7.504;2024-03-23T07:51:58;24.95;;;8.68;;
5414;SDS011;2730;51.512;7.504;2024-03-23T07:54:24;23.67;;;8.57;;
5414;SDS011;2730;51.512;7.504;2024-03-23T07:56:51;24.25;;;7.15;;
5414;SDS011;2730;51.512;7.504;2024-03-23T07:59:17;13.60;;;7.40;;
5414;SDS011;2730;51.512;7.504;2024-03-23T08:01:44;12.48;;;6.25;;
5414;SDS011;2730;51.512;7.504;2024-03-23T08:04:10;15.10;;;6.87;;
5414;SDS011;2730;51.512;7.504;2024-03-23T08:06:39;14.77;;;6.18;;
5414;SDS011;2730;51.512;7.504;2024-03-23T08:09:04;8.85;;;5.43;;
5414;SDS011;2730;51.512;7.504;2024-03-23T08:11:31;12.75;;;5.80;;
5414;SDS011;2730;51.512;7.504;2024-03-23T08:13:59;8.85;;;5.50;;
5414;SDS011;2730;51.512;7.504;2024-03-23T08:16:27;16.88;;;6.13;;
5414;SDS011;2730;51.512;7.504;2024-03-23T08:18:53;14.75;;;6.65;;
5414;SDS011;2730;51.512;7.504;2024-03-23T08:21:20;14.25;;;6.60;;
5414;SDS011;2730;51.512;7.504;2024-03-23T08:23:47;19.87;;;6.90;;
5414;SDS011;2730;51.512;7.504;2024-03-23T08:26:15;9.60;;;5.00;;
5414;SDS011;2730;51.512;7.504;2024-03-23T08:28:41;5.82;;;4.88;;
5414;SDS011;2730;51.512;7.504;2024-03-23T08:31:08;9.68;;;5.65;;
5414;SDS011;2730;51.512;7.504;2024-03-23T08:33:35;7.70;;;4.95;;
5414;SDS011;2730;51.512;7.504;2024-03-23T08:36:04;8.30;;;5.20;;
5414;SDS011;2730;51.512;7.504;2024-03-23T08:38:30;6.72;;;4.65;;
5414;SDS011;2730;51.512;7.504;2024-03-23T08:40:58;10.02;;;4.82;;
5414;SDS011;2730;51.512;7.504;2024-03-23T08:43:27;7.53;;;4.45;;
5414;SDS011;2730;51.512;7.504;2024-03-23T08:46:02;6.18;;;4.22;;
5414;SDS011;2730;51.512;7.504;2024-03-23T08:48:30;9.60;;;5.07;;
5414;SDS011;2730;51.512;7.504;2024-03-23T08:50:59;7.30;;;4.40;;
5414;SDS011;2730;51.512;7.504;2024-03-23T08:53:28;11.00;;;3.75;;
5414;SDS011;2730;51.512;7.504;2024-03-23T08:55:55;5.07;;;4.18;;
5414;SDS011;2730;51.512;7.504;2024-03-23T08:58:23;8.35;;;4.28;;
5414;SDS011;2730;51.512;7.504;2024-03-23T09:00:49;8.13;;;3.92;;
5414;SDS011;2730;51.512;7.504;2024-03-23T09:03:16;9.15;;;2.92;;
5414;SDS011;2730;51.512;7.504;2024-03-23T09:05:42;7.40;;;3.20;;
5414;SDS011;2730;51.512;7.504;2024-03-23T09:08:08;8.15;;;2.75;;
5414;SDS011;2730;51.512;7.504;2024-03-23T09:10:37;4.17;;;3.33;;
5414;SDS011;2730;51.512;7.504;2024-03-23T09:13:05;11.40;;;3.20;;
5414;SDS011;2730;51.512;7.504;2024-03-23T09:15:32;4.75;;;2.60;;
5414;SDS011;2730;51.512;7.504;2024-03-23T09:17:59;11.55;;;3.17;;
5414;SDS011;2730;51.512;7.504;2024-03-23T09:20:25;3.53;;;2.20;;
5414;SDS011;2730;51.512;7.504;2024-03-23T09:22:52;4.70;;;2.40;;
5414;SDS011;2730;51.512;7.504;2024-03-23T09:25:18;6.57;;;3.30;;
5414;SDS011;2730;51.512;7.504;2024-03-23T09:27:45;5.53;;;2.42;;
5414;SDS011;2730;51.512;7.504;2024-03-23T09:30:12;11.88;;;2.70;;
5414;SDS011;2730;51.512;7.504;2024-03-23T09:32:40;10.48;;;2.47;;
5414;SDS011;2730;51.512;7.504;2024-03-23T09:35:07;6.38;;;3.00;;
5414;SDS011;2730;51.512;7.504;2024-03-23T09:37:34;6.70;;;2.15;;
5414;SDS011;2730;51.512;7.504;2024-03-23T09:40:00;11.13;;;2.25;;
5414;SDS011;2730;51.512;7.504;2024-03-23T09:42:27;7.63;;;2.30;;
5414;SDS011;2730;51.512;7.504;2024-03-23T09:44:53;7.03;;;2.07;;
5414;SDS011;2730;51.512;7.504;2024-03-23T09:47:22;5.97;;;2.65;;
5414;SDS011;2730;51.512;7.504;2024-03-23T09:49:51;9.57;;;2.33;;
5414;SDS011;2730;51.512;7.504;2024-03-23T09:52:18;7.78;;;1.95;;
5414;SDS011;2730;51.512;7.504;2024-03-23T09:54:44;4.20;;;1.60;;
5414;SDS011;2730;51.512;7.504;2024-03-23T09:57:11;4.15;;;1.65;;
5414;SDS011;2730;51.512;7.504;2024-03-23T09:59:37;9.73;;;2.20;;
5414;SDS011;2730;51.512;7.504;2024-03-23T10:02:03;9.65;;;1.40;;
5414;SDS011;2730;51.512;7.504;2024-03-23T10:04:36;2.55;;;1.45;;
5414;SDS011;2730;51.512;7.504;2024-03-23T10:07:11;1.65;;;1.38;;
5414;SDS011;2730;51.512;7.504;2024-03-23T10:09:37;6.78;;;1.63;;
5414;SDS011;2730;51.512;7.504;2024-03-23T10:12:08;3.30;;;1.80;;
5414;SDS011;2730;51.512;7.504;2024-03-23T10:14:35;2.45;;;1.48;;
5414;SDS011;2730;51.512;7.504;2024-03-23T10:17:12;2.38;;;1.80;;
5414;SDS011;2730;51.512;7.504;2024-03-23T10:19:42;2.95;;;1.67;;
5414;SDS011;2730;51.512;7.504;2024-03-23T10:22:12;6.15;;;2.40;;
5414;SDS011;2730;51.512;7.504;2024-03-23T10:24:39;5.20;;;2.25;;
5414;SDS011;2730;51.512;7.504;2024-03-23T10:27:05;5.38;;;2.05;;
5414;SDS011;2730;51.512;7.504;2024-03-23T10:29:31;12.10;;;2.70;;
5414;SDS011;2730;51.512;7.504;2024-03-23T10:32:07;7.43;;;2.38;;
5414;SDS011;2730;51.512;7.504;2024-03-23T10:34:33;4.68;;;3.38;;
5414;SDS011;2730;51.512;7.504;2024-03-23T10:37:01;5.35;;;3.45;;
5414;SDS011;2730;51.512;7.504;2024-03-23T10:39:29;3.47;;;2.47;;
5414;SDS011;2730;51.512;7.504;2024-03-23T10:41:58;3.83;;;2.25;;
5414;SDS011;2730;51.512;7.504;2024-03-23T10:44:26;8.75;;;2.38;;
5414;SDS011;2730;51.512;7.504;2024-03-23T10:46:55;2.10;;;1.90;;
5414;SDS011;2730;51.512;7.504;2024-03-23T10:49:25;5.55;;;2.78;;
5414;SDS011;2730;51.512;7.504;2024-03-23T10:51:54;3.80;;;2.10;;
5414;SDS011;2730;51.512;7.504;2024-03-23T10:54:21;5.40;;;2.03;;
5414;SDS011;2730;51.512;7.504;2024-03-23T10:56:49;13.43;;;1.85;;
5414;SDS011;2730;51.512;7.504;2024-03-23T10:59:18;5.05;;;2.20;;
5414;SDS011;2730;51.512;7.504;2024-03-23T11:01:55;3.03;;;1.63;;
5414;SDS011;2730;51.512;7.504;2024-03-23T11:04:32;6.40;;;1.95;;
5414;SDS011;2730;51.512;7.504;2024-03-23T11:06:59;3.67;;;1.88;;
5414;SDS011;2730;51.512;7.504;2024-03-23T11:12:23;2.58;;;1.67;;
5414;SDS011;2730;51.512;7.504;2024-03-23T11:14:51;4.78;;;1.48;;
5414;SDS011;2730;51.512;7.504;2024-03-23T11:17:19;3.33;;;1.83;;
5414;SDS011;2730;51.512;7.504;2024-03-23T11:19:52;4.88;;;1.98;;
5414;SDS011;2730;51.512;7.504;2024-03-23T11:22:39;5.40;;;1.55;;
5414;SDS011;2730;51.512;7.504;2024-03-23T11:25:13;5.68;;;1.00;;
5414;SDS011;2730;51.512;7.504;2024-03-23T11:27:42;1.17;;;0.70;;
5414;SDS011;2730;51.512;7.504;2024-03-23T11:30:14;0.70;;;0.70;;
5414;SDS011;2730;51.512;7.504;2024-03-23T11:32:41;0.80;;;0.60;;
5414;SDS011;2730;51.512;7.504;2024-03-23T11:35:08;1.13;;;0.60;;
5414;SDS011;2730;51.512;7.504;2024-03-23T11:37:35;0.60;;;0.60;;
5414;SDS011;2730;51.512;7.504;2024-03-23T11:42:48;0.70;;;0.70;;
5414;SDS011;2730;51.512;7.504;2024-03-23T11:45:21;2.45;;;0.80;;
5414;SDS011;2730;51.512;7.504;2024-03-23T11:47:47;1.07;;;0.63;;
5414;SDS011;2730;51.512;7.504;2024-03-23T11:50:19;1.80;;;0.82;;
5414;SDS011;2730;51.512;7.504;2024-03-23T11:52:45;4.63;;;0.90;;
5414;SDS011;2730;51.512;7.504;2024-03-23T11:55:12;1.10;;;0.80;;
5414;SDS011;2730;51.512;7.504;2024-03-23T11:57:37;1.33;;;0.67;;
5414;SDS011;2730;51.512;7.504;2024-03-23T12:02:47;0.80;;;0.80;;
5414;SDS011;2730;51.512;7.504;2024-03-23T12:05:14;0.73;;;0.70;;
5414;SDS011;2730;51.512;7.504;2024-03-23T12:07:40;0.77;;;0.70;;
5414;SDS011;2730;51.512;7.504;2024-03-23T12:10:07;1.60;;;0.90;;
5414;SDS011;2730;51.512;7.504;2024-03-23T12:12:33;2.58;;;0.80;;
5414;SDS011;2730;51.512;7.504;2024-03-23T12:15:03;5.20;;;1.15;;
5414;SDS011;2730;51.512;7.504;2024-03-23T12:17:32;0.90;;;0.90;;
5414;SDS011;2730;51.512;7.504;2024-03-23T12:20:00;1.27;;;1.02;;
5414;SDS011;2730;51.512;7.504;2024-03-23T12:22:26;1.23;;;1.10;;
5414;SDS011;2730;51.512;7.504;2024-03-23T12:24:54;7.45;;;1.40;;
5414;SDS011;2730;51.512;7.504;2024-03-23T12:27:20;1.40;;;1.17;;
5414;SDS011;2730;51.512;7.504;2024-03-23T12:29:47;9.52;;;1.50;;
5414;SDS011;2730;51.512;7.504;2024-03-23T12:32:13;2.13;;;1.30;;
5414;SDS011;2730;51.512;7.504;2024-03-23T12:34:42;2.20;;;1.25;;
5414;SDS011;2730;51.512;7.504;2024-03-23T12:37:08;2.25;;;1.65;;
5414;SDS011;2730;51.512;7.504;2024-03-23T12:39:35;7.07;;;2.38;;
5414;SDS011;2730;51.512;7.504;2024-03-23T12:42:02;8.45;;;1.80;;
5414;SDS011;2730;51.512;7.504;2024-03-23T12:44:29;6.82;;;1.88;;
5414;SDS011;2730;51.512;7.504;2024-03-23T12:46:55;2.50;;;0.83;;
5414;SDS011;2730;51.512;7.504;2024-03-23T12:49:21;6.78;;;1.17;;
5414;SDS011;2730;51.512;7.504;2024-03-23T12:51:53;1.10;;;1.00;;
5414;SDS011;2730;51.512;7.504;2024-03-23T12:54:21;2.65;;;1.08;;
5414;SDS011;2730;51.512;7.504;2024-03-23T12:56:47;3.60;;;1.25;;
5414;SDS011;2730;51.512;7.504;2024-03-23T12:59:14;1.15;;;1.05;;
5414;SDS011;2730;51.512;7.504;2024-03-23T13:01:41;4.13;;;1.00;;
5414;SDS011;2730;51.512;7.504;2024-03-23T13:04:08;1.33;;;1.23;;
5414;SDS011;2730;51.512;7.504;2024-03-23T13:06:35;2.63;;;0.82;;
5414;SDS011;2730;51.512;7.504;2024-03-23T13:09:03;3.93;;;0.90;;
5414;SDS011;2730;51.512;7.504;2024-03-23T13:11:30;2.28;;;1.20;;
5414;SDS011;2730;51.512;7.504;2024-03-23T13:13:55;1.13;;;0.90;;
5414;SDS011;2730;51.512;7.504;2024-03-23T13:16:22;3.08;;;1.25;;
5414;SDS011;2730;51.512;7.504;2024-03-23T13:18:48;1.97;;;1.20;;
5414;SDS011;2730;51.512;7.504;2024-03-23T13:21:16;1.90;;;1.23;;
5414;SDS011;2730;51.512;7.504;2024-03-23T13:23:42;2.87;;;1.10;;
5414;SDS011;2730;51.512;7.504;2024-03-23T13:26:14;1.65;;;0.93;;
5414;SDS011;2730;51.512;7.504;2024-03-23T13:28:40;1.25;;;1.10;;
5414;SDS011;2730;51.512;7.504;2024-03-23T13:31:07;0.90;;;0.90;;
5414;SDS011;2730;51.512;7.504;2024-03-23T13:33:33;7.13;;;1.50;;
5414;SDS011;2730;51.512;7.504;2024-03-23T13:36:00;2.00;;;1.20;;
5414;SDS011;2730;51.512;7.504;2024-03-23T13:38:27;1.10;;;1.10;;
5414;SDS011;2730;51.512;7.504;2024-03-23T13:40:54;0.93;;;0.93;;
5414;SDS011;2730;51.512;7.504;2024-03-23T13:43:22;2.03;;;1.25;;
5414;SDS011;2730;51.512;7.504;2024-03-23T13:45:52;1.65;;;0.98;;
5414;SDS011;2730;51.512;7.504;2024-03-23T13:48:19;1.27;;;0.90;;
5414;SDS011;2730;51.512;7.504;2024-03-23T13:50:46;1.50;;;0.75;;
5414;SDS011;2730;51.512;7.504;2024-03-23T13:53:13;2.05;;;0.90;;
5414;SDS011;2730;51.512;7.504;2024-03-23T13:55:45;0.70;;;0.70;;
5414;SDS011;2730;51.512;7.504;2024-03-23T13:58:12;1.02;;;0.90;;
5414;SDS011;2730;51.512;7.504;2024-03-23T14:00:40;4.40;;;1.48;;
5414;SDS011;2730;51.512;7.504;2024-03-23T14:03:07;7.53;;;0.90;;
5414;SDS011;2730;51.512;7.504;2024-03-23T14:05:34;2.90;;;1.23;;
5414;SDS011;2730;51.512;7.504;2024-03-23T14:08:00;2.63;;;1.10;;
5414;SDS011;2730;51.512;7.504;2024-03-23T14:10:27;2.05;;;1.08;;
5414;SDS011;2730;51.512;7.504;2024-03-23T14:12:52;2.20;;;0.93;;
5414;SDS011;2730;51.512;7.504;2024-03-23T14:15:19;3.20;;;1.33;;
5414;SDS011;2730;51.512;7.504;2024-03-23T14:17:46;5.37;;;1.33;;
5414;SDS011;2730;51.512;7.504;2024-03-23T14:20:13;5.68;;;1.30;;
5414;SDS011;2730;51.512;7.504;2024-03-23T14:22:40;1.10;;;1.00;;
5414;SDS011;2730;51.512;7.504;2024-03-23T14:25:08;2.85;;;0.98;;
5414;SDS011;2730;51.512;7.504;2024-03-23T14:27:33;2.53;;;1.20;;
5414;SDS011;2730;51.512;7.504;2024-03-23T14:30:02;1.17;;;1.08;;
5414;SDS011;2730;51.512;7.504;2024-03-23T14:32:28;1.42;;;1.33;;
5414;SDS011;2730;51.512;7.504;2024-03-23T14:35:00;2.33;;;1.35;;
5414;SDS011;2730;51.512;7.504;2024-03-23T14:37:26;2.00;;;1.23;;
5414;SDS011;2730;51.512;7.504;2024-03-23T14:39:53;1.63;;;1.50;;
5414;SDS011;2730;51.512;7.504;2024-03-23T14:42:20;3.55;;;1.40;;
5414;SDS011;2730;51.512;7.504;2024-03-23T14:44:47;4.53;;;1.48;;
5414;SDS011;2730;51.512;7.504;2024-03-23T14:47:13;4.10;;;1.43;;
5414;SDS011;2730;51.512;7.504;2024-03-23T14:49:40;2.65;;;1.17;;
5414;SDS011;2730;51.512;7.504;2024-03-23T14:52:07;1.43;;;1.20;;
5414;SDS011;2730;51.512;7.504;2024-03-23T14:54:34;3.70;;;1.10;;
5414;SDS011;2730;51.512;7.504;2024-03-23T14:57:00;3.40;;;1.35;;
5414;SDS011;2730;51.512;7.504;2024-03-23T14:59:27;4.85;;;1.38;;
5414;SDS011;2730;51.512;7.504;2024-03-23T15:01:53;7.70;;;3.10;;
5414;SDS011;2730;51.512;7.504;2024-03-23T15:04:19;2.55;;;1.42;;
5414;SDS011;2730;51.512;7.504;2024-03-23T15:06:45;3.03;;;1.67;;
5414;SDS011;2730;51.512;7.504;2024-03-23T15:09:15;4.00;;;1.20;;
5414;SDS011;2730;51.512;7.504;2024-03-23T15:11:42;1.88;;;1.10;;
5414;SDS011;2730;51.512;7.504;2024-03-23T15:14:08;2.35;;;0.93;;
5414;SDS011;2730;51.512;7.504;2024-03-23T15:16:35;1.10;;;1.00;;
5414;SDS011;2730;51.512;7.504;2024-03-23T15:19:02;1.10;;;1.00;;
5414;SDS011;2730;51.512;7.504;2024-03-23T15:21:30;1.92;;;1.00;;
5414;SDS011;2730;51.512;7.504;2024-03-23T15:23:57;1.10;;;1.00;;
5414;SDS011;2730;51.512;7.504;2024-03-23T15:26:24;2.77;;;1.07;;
5414;SDS011;2730;51.512;7.504;2024-03-23T15:28:51;1.52;;;1.10;;
5414;SDS011;2730;51.512;7.504;2024-03-23T15:31:35;0.77;;;0.77;;
5414;SDS011;2730;51.512;7.504;2024-03-23T15:34:02;6.20;;;1.08;;
5414;SDS011;2730;51.512;7.504;2024-03-23T15:36:29;1.13;;;0.77;;
5414;SDS011;2730;51.512;7.504;2024-03-23T15:38:56;7.00;;;1.58;;
5414;SDS011;2730;51.512;7.504;2024-03-23T15:41:22;4.10;;;1.25;;
5414;SDS011;2730;51.512;7.504;2024-03-23T15:43:50;3.60;;;1.00;;
5414;SDS011;2730;51.512;7.504;2024-03-23T15:46:16;1.50;;;1.13;;
5414;SDS011;2730;51.512;7.504;2024-03-23T15:48:44;2.40;;;1.10;;
5414;SDS011;2730;51.512;7.504;2024-03-23T15:51:12;1.60;;;1.25;;
5414;SDS011;2730;51.512;7.504;2024-03-23T15:53:39;1.10;;;1.00;;
5414;SDS011;2730;51.512;7.504;2024-03-23T15:56:05;1.07;;;0.97;;
5414;SDS011;2730;51.512;7.504;2024-03-23T15:58:33;0.88;;;0.85;;
5414;SDS011;2730;51.512;7.504;2024-03-23T16:01:00;3.03;;;1.25;;
5414;SDS011;2730;51.512;7.504;2024-03-23T16:03:28;3.22;;;1.38;;
5414;SDS011;2730;51.512;7.504;2024-03-23T16:05:54;1.10;;;1.00;;
5414;SDS011;2730;51.512;7.504;2024-03-23T16:08:22;1.30;;;1.08;;
5414;SDS011;2730;51.512;7.504;2024-03-23T16:10:48;7.95;;;1.20;;
5414;SDS011;2730;51.512;7.504;2024-03-23T16:13:15;2.53;;;1.45;;
5414;SDS011;2730;51.512;7.504;2024-03-23T16:15:42;2.45;;;1.00;;